sensor_id;sensor_type;location;lat;lon;timestamp;P1;durP1;ratioP1;P2;durP2;ratioP2
21601;SDS011;10963;50.934;4.668;2023-05-21T00:01:36;5.03;;;4.27;;
21601;SDS011;10963;50.934;4.668;2023-05-21T00:04:03;4.87;;;4.03;;
21601;SDS011;10963;50.934;4.668;2023-05-21T00:06:34;5.37;;;4.20;;
21601;SDS011;10963;50.934;4.668;2023-05-21T00:09:03;4.40;;;3.67;;
21601;SDS011;10963;50.934;4.668;2023-05-21T00:11:31;6.00;;;4.20;;
21601;SDS011;10963;50.934;4.668;2023-05-21T00:13:57;5.37;;;4.00;;
21601;SDS011;10963;50.934;4.668;2023-05-21T00:16:23;5.47;;;4.27;;
21601;SDS011;10963;50.934;4.668;2023-05-21T00:18:51;8.27;;;4.40;;
21601;SDS011;10963;50.934;4.668;2023-05-21T00:21:18;10.47;;;4.23;;
21601;SDS011;10963;50.934;4.668;2023-05-21T00:23:47;5.63;;;3.90;;
21601;SDS011;10963;50.934;4.668;2023-05-21T00:26:14;5.97;;;4.20;;
21601;SDS011;10963;50.934;4.668;2023-05-21T00:28:40;8.03;;;4.40;;
21601;SDS011;10963;50.934;4.668;2023-05-21T00:31:05;6.00;;;4.10;;
21601;SDS011;10963;50.934;4.668;2023-05-21T00:33:34;4.77;;;4.30;;
21601;SDS011;10963;50.934;4.668;2023-05-21T00:35:59;7.07;;;4.27;;
21601;SDS011;10963;50.934;4.668;2023-05-21T00:38:27;4.90;;;4.13;;
21601;SDS011;10963;50.934;4.668;2023-05-21T00:40:53;5.43;;;4.83;;
21601;SDS011;10963;50.934;4.668;2023-05-21T00:43:23;4.43;;;3.87;;
21601;SDS011;10963;50.934;4.668;2023-05-21T00:45:53;9.37;;;4.50;;
21601;SDS011;10963;50.934;4.668;2023-05-21T00:48:22;6.63;;;4.50;;
21601;SDS011;10963;50.934;4.668;2023-05-21T00:50:48;9.80;;;4.00;;
21601;SDS011;10963;50.934;4.668;2023-05-21T00:53:14;4.63;;;3.80;;
21601;SDS011;10963;50.934;4.668;2023-05-21T00:55:43;7.17;;;4.33;;
21601;SDS011;10963;50.934;4.668;2023-05-21T00:58:10;7.27;;;4.37;;
21601;SDS011;10963;50.934;4.668;2023-05-21T01:00:38;8.13;;;4.30;;
21601;SDS011;10963;50.934;4.668;2023-05-21T01:03:09;4.63;;;4.10;;
21601;SDS011;10963;50.934;4.668;2023-05-21T01:05:37;5.20;;;4.13;;
21601;SDS011;10963;50.934;4.668;2023-05-21T01:08:09;9.70;;;4.73;;
21601;SDS011;10963;50.934;4.668;2023-05-21T01:10:34;7.23;;;4.53;;
21601;SDS011;10963;50.934;4.668;2023-05-21T01:13:00;5.47;;;4.47;;
21601;SDS011;10963;50.934;4.668;2023-05-21T01:15:26;6.43;;;4.53;;
21601;SDS011;10963;50.934;4.668;2023-05-21T01:17:55;4.97;;;4.20;;
21601;SDS011;10963;50.934;4.668;2023-05-21T01:20:23;6.07;;;4.03;;
21601;SDS011;10963;50.934;4.668;2023-05-21T01:25:18;8.27;;;4.20;;
21601;SDS011;10963;50.934;4.668;2023-05-21T01:27:44;5.17;;;4.10;;
21601;SDS011;10963;50.934;4.668;2023-05-21T01:30:10;4.67;;;4.23;;
21601;SDS011;10963;50.934;4.668;2023-05-21T01:35:14;7.10;;;4.50;;
21601;SDS011;10963;50.934;4.668;2023-05-21T01:37:47;6.20;;;4.33;;
21601;SDS011;10963;50.934;4.668;2023-05-21T01:40:28;5.43;;;4.60;;
21601;SDS011;10963;50.934;4.668;2023-05-21T01:43:02;5.73;;;4.60;;
21601;SDS011;10963;50.934;4.668;2023-05-21T01:45:33;6.20;;;4.70;;
21601;SDS011;10963;50.934;4.668;2023-05-21T01:48:03;5.17;;;4.50;;
21601;SDS011;10963;50.934;4.668;2023-05-21T01:50:34;5.53;;;4.30;;
21601;SDS011;10963;50.934;4.668;2023-05-21T01:53:04;6.87;;;4.40;;
21601;SDS011;10963;50.934;4.668;2023-05-21T01:55:32;4.47;;;4.00;;
21601;SDS011;10963;50.934;4.668;2023-05-21T01:57:58;6.03;;;5.00;;
21601;SDS011;10963;50.934;4.668;2023-05-21T02:00:27;6.07;;;4.40;;
21601;SDS011;10963;50.934;4.668;2023-05-21T02:02:53;6.07;;;4.60;;
21601;SDS011;10963;50.934;4.668;2023-05-21T02:05:22;6.53;;;4.83;;
21601;SDS011;10963;50.934;4.668;2023-05-21T02:07:49;6.37;;;4.47;;
21601;SDS011;10963;50.934;4.668;2023-05-21T02:10:16;9.37;;;4.70;;
21601;SDS011;10963;50.934;4.668;2023-05-21T02:12:41;6.83;;;4.73;;
21601;SDS011;10963;50.934;4.668;2023-05-21T02:15:07;7.57;;;4.43;;
21601;SDS011;10963;50.934;4.668;2023-05-21T02:17:36;6.97;;;4.73;;
21601;SDS011;10963;50.934;4.668;2023-05-21T02:20:02;6.63;;;4.97;;
21601;SDS011;10963;50.934;4.668;2023-05-21T02:22:38;5.33;;;4.57;;
21601;SDS011;10963;50.934;4.668;2023-05-21T02:25:05;5.90;;;4.83;;
21601;SDS011;10963;50.934;4.668;2023-05-21T02:27:34;5.97;;;5.23;;
21601;SDS011;10963;50.934;4.668;2023-05-21T02:30:04;6.80;;;5.30;;
21601;SDS011;10963;50.934;4.668;2023-05-21T02:32:36;8.60;;;5.00;;
21601;SDS011;10963;50.934;4.668;2023-05-21T02:35:06;8.00;;;5.23;;
21601;SDS011;10963;50.934;4.668;2023-05-21T02:37:40;7.03;;;5.30;;
21601;SDS011;10963;50.934;4.668;2023-05-21T02:40:08;7.20;;;5.00;;
21601;SDS011;10963;50.934;4.668;2023-05-21T02:42:35;7.30;;;5.60;;
21601;SDS011;10963;50.934;4.668;2023-05-21T02:45:03;6.77;;;5.50;;
21601;SDS011;10963;50.934;4.668;2023-05-21T02:47:38;6.47;;;5.10;;
21601;SDS011;10963;50.934;4.668;2023-05-21T02:50:07;6.30;;;5.67;;
21601;SDS011;10963;50.934;4.668;2023-05-21T02:52:33;6.10;;;4.90;;
21601;SDS011;10963;50.934;4.668;2023-05-21T02:54:59;7.87;;;5.40;;
21601;SDS011;10963;50.934;4.668;2023-05-21T02:57:25;8.03;;;5.70;;
21601;SDS011;10963;50.934;4.668;2023-05-21T02:59:53;6.77;;;5.93;;
21601;SDS011;10963;50.934;4.668;2023-05-21T03:02:19;7.13;;;5.57;;
21601;SDS011;10963;50.934;4.668;2023-05-21T03:04:47;6.93;;;6.07;;
21601;SDS011;10963;50.934;4.668;2023-05-21T03:07:13;8.43;;;5.90;;
21601;SDS011;10963;50.934;4.668;2023-05-21T03:09:43;7.77;;;6.23;;
21601;SDS011;10963;50.934;4.668;2023-05-21T03:12:11;8.30;;;6.07;;
21601;SDS011;10963;50.934;4.668;2023-05-21T03:14:37;7.33;;;6.13;;
21601;SDS011;10963;50.934;4.668;2023-05-21T03:17:02;12.50;;;6.10;;
21601;SDS011;10963;50.934;4.668;2023-05-21T03:19:30;8.67;;;6.53;;
21601;SDS011;10963;50.934;4.668;2023-05-21T03:21:58;11.10;;;6.60;;
21601;SDS011;10963;50.934;4.668;2023-05-21T03:24:25;8.90;;;6.57;;
21601;SDS011;10963;50.934;4.668;2023-05-21T03:26:54;8.97;;;6.80;;
21601;SDS011;10963;50.934;4.668;2023-05-21T03:29:20;8.93;;;6.43;;
21601;SDS011;10963;50.934;4.668;2023-05-21T03:31:48;7.60;;;6.53;;
21601;SDS011;10963;50.934;4.668;2023-05-21T03:34:16;8.03;;;6.07;;
21601;SDS011;10963;50.934;4.668;2023-05-21T03:36:44;10.07;;;7.07;;
21601;SDS011;10963;50.934;4.668;2023-05-21T03:39:13;7.87;;;6.70;;
21601;SDS011;10963;50.934;4.668;2023-05-21T03:41:38;8.97;;;6.50;;
21601;SDS011;10963;50.934;4.668;2023-05-21T03:44:07;9.47;;;6.67;;
21601;SDS011;10963;50.934;4.668;2023-05-21T03:46:33;7.20;;;6.10;;
21601;SDS011;10963;50.934;4.668;2023-05-21T03:49:01;8.37;;;6.53;;
21601;SDS011;10963;50.934;4.668;2023-05-21T03:51:27;10.50;;;6.63;;
21601;SDS011;10963;50.934;4.668;2023-05-21T03:53:56;8.33;;;6.93;;
21601;SDS011;10963;50.934;4.668;2023-05-21T03:56:24;9.07;;;6.77;;
21601;SDS011;10963;50.934;4.668;2023-05-21T03:58:53;8.03;;;6.50;;
21601;SDS011;10963;50.934;4.668;2023-05-21T04:01:21;7.80;;;6.97;;
21601;SDS011;10963;50.934;4.668;2023-05-21T04:03:54;20.00;;;7.87;;
21601;SDS011;10963;50.934;4.668;2023-05-21T04:06:20;9.87;;;6.77;;
21601;SDS011;10963;50.934;4.668;2023-05-21T04:08:50;9.93;;;6.73;;
21601;SDS011;10963;50.934;4.668;2023-05-21T04:11:16;9.47;;;6.80;;
21601;SDS011;10963;50.934;4.668;2023-05-21T04:13:44;9.80;;;7.07;;
21601;SDS011;10963;50.934;4.668;2023-05-21T04:16:14;10.17;;;6.90;;
21601;SDS011;10963;50.934;4.668;2023-05-21T04:18:43;8.90;;;7.47;;
21601;SDS011;10963;50.934;4.668;2023-05-21T04:21:11;11.47;;;7.17;;
21601;SDS011;10963;50.934;4.668;2023-05-21T04:23:37;9.87;;;8.00;;
21601;SDS011;10963;50.934;4.668;2023-05-21T04:26:03;12.00;;;7.83;;
21601;SDS011;10963;50.934;4.668;2023-05-21T04:28:31;9.40;;;7.57;;
21601;SDS011;10963;50.934;4.668;2023-05-21T04:30:57;10.57;;;7.03;;
21601;SDS011;10963;50.934;4.668;2023-05-21T04:33:29;9.13;;;7.53;;
21601;SDS011;10963;50.934;4.668;2023-05-21T04:35:57;11.17;;;8.13;;
21601;SDS011;10963;50.934;4.668;2023-05-21T04:38:23;9.73;;;7.63;;
21601;SDS011;10963;50.934;4.668;2023-05-21T04:40:51;8.17;;;7.27;;
21601;SDS011;10963;50.934;4.668;2023-05-21T04:43:19;8.47;;;6.97;;
21601;SDS011;10963;50.934;4.668;2023-05-21T04:45:50;11.13;;;7.27;;
21601;SDS011;10963;50.934;4.668;2023-05-21T04:48:18;9.03;;;7.23;;
21601;SDS011;10963;50.934;4.668;2023-05-21T04:50:44;11.00;;;7.47;;
21601;SDS011;10963;50.934;4.668;2023-05-21T04:53:10;11.03;;;7.73;;
21601;SDS011;10963;50.934;4.668;2023-05-21T04:55:36;11.33;;;7.07;;
21601;SDS011;10963;50.934;4.668;2023-05-21T04:58:05;9.07;;;7.20;;
21601;SDS011;10963;50.934;4.668;2023-05-21T05:00:33;10.40;;;6.60;;
21601;SDS011;10963;50.934;4.668;2023-05-21T05:03:04;10.10;;;7.47;;
21601;SDS011;10963;50.934;4.668;2023-05-21T05:05:30;11.57;;;7.57;;
21601;SDS011;10963;50.934;4.668;2023-05-21T05:07:57;10.70;;;7.60;;
21601;SDS011;10963;50.934;4.668;2023-05-21T05:10:26;11.27;;;7.17;;
21601;SDS011;10963;50.934;4.668;2023-05-21T05:12:52;9.63;;;7.20;;
21601;SDS011;10963;50.934;4.668;2023-05-21T05:15:17;9.73;;;7.57;;
21601;SDS011;10963;50.934;4.668;2023-05-21T05:17:44;8.80;;;7.90;;
21601;SDS011;10963;50.934;4.668;2023-05-21T05:20:16;10.63;;;7.73;;
21601;SDS011;10963;50.934;4.668;2023-05-21T05:22:42;13.00;;;8.50;;
21601;SDS011;10963;50.934;4.668;2023-05-21T05:25:10;10.63;;;7.07;;
21601;SDS011;10963;50.934;4.668;2023-05-21T05:27:38;16.67;;;7.63;;
21601;SDS011;10963;50.934;4.668;2023-05-21T05:30:04;8.93;;;7.17;;
21601;SDS011;10963;50.934;4.668;2023-05-21T05:32:36;8.83;;;7.37;;
21601;SDS011;10963;50.934;4.668;2023-05-21T05:35:02;10.93;;;8.03;;
21601;SDS011;10963;50.934;4.668;2023-05-21T05:37:30;9.03;;;7.93;;
21601;SDS011;10963;50.934;4.668;2023-05-21T05:39:57;10.27;;;7.77;;
21601;SDS011;10963;50.934;4.668;2023-05-21T05:42:28;10.30;;;7.57;;
21601;SDS011;10963;50.934;4.668;2023-05-21T05:44:56;13.90;;;8.13;;
21601;SDS011;10963;50.934;4.668;2023-05-21T05:47:24;9.57;;;7.53;;
21601;SDS011;10963;50.934;4.668;2023-05-21T05:49:50;14.30;;;8.13;;
21601;SDS011;10963;50.934;4.668;2023-05-21T05:52:15;9.00;;;8.07;;
21601;SDS011;10963;50.934;4.668;2023-05-21T05:54:41;11.70;;;8.33;;
21601;SDS011;10963;50.934;4.668;2023-05-21T05:57:07;12.53;;;8.17;;
21601;SDS011;10963;50.934;4.668;2023-05-21T05:59:35;8.63;;;7.70;;
21601;SDS011;10963;50.934;4.668;2023-05-21T06:02:01;12.23;;;7.53;;
21601;SDS011;10963;50.934;4.668;2023-05-21T06:04:26;14.43;;;8.80;;
21601;SDS011;10963;50.934;4.668;2023-05-21T06:06:57;11.00;;;7.57;;
21601;SDS011;10963;50.934;4.668;2023-05-21T06:09:28;10.67;;;7.67;;
21601;SDS011;10963;50.934;4.668;2023-05-21T06:11:55;10.37;;;7.80;;
21601;SDS011;10963;50.934;4.668;2023-05-21T06:14:21;11.50;;;7.50;;
21601;SDS011;10963;50.934;4.668;2023-05-21T06:16:49;9.00;;;7.40;;
21601;SDS011;10963;50.934;4.668;2023-05-21T06:19:17;11.50;;;8.20;;
21601;SDS011;10963;50.934;4.668;2023-05-21T06:21:43;9.63;;;6.90;;
21601;SDS011;10963;50.934;4.668;2023-05-21T06:24:08;12.90;;;8.63;;
21601;SDS011;10963;50.934;4.668;2023-05-21T06:26:34;8.80;;;7.67;;
21601;SDS011;10963;50.934;4.668;2023-05-21T06:29:02;10.77;;;8.27;;
21601;SDS011;10963;50.934;4.668;2023-05-21T06:31:30;9.70;;;7.60;;
21601;SDS011;10963;50.934;4.668;2023-05-21T06:33:57;8.70;;;7.20;;
21601;SDS011;10963;50.934;4.668;2023-05-21T06:36:24;11.43;;;7.53;;
21601;SDS011;10963;50.934;4.668;2023-05-21T06:38:56;8.70;;;6.90;;
21601;SDS011;10963;50.934;4.668;2023-05-21T06:41:21;14.80;;;8.10;;
21601;SDS011;10963;50.934;4.668;2023-05-21T06:43:47;8.87;;;7.47;;
21601;SDS011;10963;50.934;4.668;2023-05-21T06:46:15;12.83;;;8.50;;
21601;SDS011;10963;50.934;4.668;2023-05-21T06:48:44;10.40;;;8.23;;
21601;SDS011;10963;50.934;4.668;2023-05-21T06:51:14;11.50;;;7.57;;
21601;SDS011;10963;50.934;4.668;2023-05-21T06:53:44;10.83;;;8.03;;
21601;SDS011;10963;50.934;4.668;2023-05-21T06:56:14;12.07;;;8.27;;
21601;SDS011;10963;50.934;4.668;2023-05-21T06:58:42;9.00;;;7.50;;
21601;SDS011;10963;50.934;4.668;2023-05-21T07:01:10;10.47;;;8.53;;
21601;SDS011;10963;50.934;4.668;2023-05-21T07:03:38;10.27;;;8.20;;
21601;SDS011;10963;50.934;4.668;2023-05-21T07:06:09;9.70;;;7.30;;
21601;SDS011;10963;50.934;4.668;2023-05-21T07:08:34;11.10;;;7.80;;
21601;SDS011;10963;50.934;4.668;2023-05-21T07:11:00;10.50;;;7.90;;
21601;SDS011;10963;50.934;4.668;2023-05-21T07:13:28;10.53;;;7.87;;
21601;SDS011;10963;50.934;4.668;2023-05-21T07:15:54;9.47;;;7.40;;
21601;SDS011;10963;50.934;4.668;2023-05-21T07:18:22;14.33;;;8.23;;
21601;SDS011;10963;50.934;4.668;2023-05-21T07:20:50;9.87;;;8.07;;
21601;SDS011;10963;50.934;4.668;2023-05-21T07:23:18;12.27;;;7.67;;
21601;SDS011;10963;50.934;4.668;2023-05-21T07:25:45;12.47;;;7.67;;
21601;SDS011;10963;50.934;4.668;2023-05-21T07:28:11;10.43;;;8.10;;
21601;SDS011;10963;50.934;4.668;2023-05-21T07:30:37;9.37;;;6.83;;
21601;SDS011;10963;50.934;4.668;2023-05-21T07:33:09;9.80;;;6.73;;
21601;SDS011;10963;50.934;4.668;2023-05-21T07:35:40;8.57;;;7.07;;
21601;SDS011;10963;50.934;4.668;2023-05-21T07:38:06;9.87;;;7.57;;
21601;SDS011;10963;50.934;4.668;2023-05-21T07:40:34;8.77;;;7.10;;
21601;SDS011;10963;50.934;4.668;2023-05-21T07:42:59;9.93;;;7.20;;
21601;SDS011;10963;50.934;4.668;2023-05-21T07:45:25;9.43;;;7.37;;
21601;SDS011;10963;50.934;4.668;2023-05-21T07:47:51;11.27;;;6.97;;
21601;SDS011;10963;50.934;4.668;2023-05-21T07:50:16;13.30;;;8.07;;
21601;SDS011;10963;50.934;4.668;2023-05-21T07:52:42;11.93;;;8.20;;
21601;SDS011;10963;50.934;4.668;2023-05-21T07:55:08;11.30;;;7.80;;
21601;SDS011;10963;50.934;4.668;2023-05-21T07:57:34;12.20;;;7.70;;
21601;SDS011;10963;50.934;4.668;2023-05-21T08:00:00;9.07;;;7.53;;
21601;SDS011;10963;50.934;4.668;2023-05-21T08:02:33;9.87;;;7.70;;
21601;SDS011;10963;50.934;4.668;2023-05-21T08:04:58;9.87;;;7.90;;
21601;SDS011;10963;50.934;4.668;2023-05-21T08:07:26;8.30;;;7.40;;
21601;SDS011;10963;50.934;4.668;2023-05-21T08:09:58;11.03;;;8.27;;
21601;SDS011;10963;50.934;4.668;2023-05-21T08:12:24;9.90;;;7.40;;
21601;SDS011;10963;50.934;4.668;2023-05-21T08:14:49;10.43;;;8.07;;
21601;SDS011;10963;50.934;4.668;2023-05-21T08:17:15;9.77;;;8.20;;
21601;SDS011;10963;50.934;4.668;2023-05-21T08:19:41;9.70;;;7.73;;
21601;SDS011;10963;50.934;4.668;2023-05-21T08:22:07;12.40;;;8.60;;
21601;SDS011;10963;50.934;4.668;2023-05-21T08:24:33;11.00;;;8.10;;
21601;SDS011;10963;50.934;4.668;2023-05-21T08:26:59;12.90;;;8.17;;
21601;SDS011;10963;50.934;4.668;2023-05-21T08:29:27;10.50;;;8.13;;
21601;SDS011;10963;50.934;4.668;2023-05-21T08:31:52;10.90;;;8.57;;
21601;SDS011;10963;50.934;4.668;2023-05-21T08:34:18;10.50;;;8.03;;
21601;SDS011;10963;50.934;4.668;2023-05-21T08:36:46;9.30;;;8.07;;
21601;SDS011;10963;50.934;4.668;2023-05-21T08:39:15;11.20;;;8.53;;
21601;SDS011;10963;50.934;4.668;2023-05-21T08:41:41;11.60;;;8.27;;
21601;SDS011;10963;50.934;4.668;2023-05-21T08:44:13;10.87;;;9.03;;
21601;SDS011;10963;50.934;4.668;2023-05-21T08:46:40;12.70;;;9.40;;
21601;SDS011;10963;50.934;4.668;2023-05-21T08:49:16;12.77;;;8.73;;
21601;SDS011;10963;50.934;4.668;2023-05-21T08:51:46;13.20;;;8.53;;
21601;SDS011;10963;50.934;4.668;2023-05-21T08:54:14;9.53;;;7.97;;
21601;SDS011;10963;50.934;4.668;2023-05-21T08:56:42;16.20;;;8.30;;
21601;SDS011;10963;50.934;4.668;2023-05-21T08:59:13;10.90;;;8.07;;
21601;SDS011;10963;50.934;4.668;2023-05-21T09:01:40;10.57;;;8.30;;
21601;SDS011;10963;50.934;4.668;2023-05-21T09:04:09;11.13;;;9.17;;
21601;SDS011;10963;50.934;4.668;2023-05-21T09:06:43;12.53;;;9.37;;
21601;SDS011;10963;50.934;4.668;2023-05-21T09:09:24;13.70;;;9.20;;
21601;SDS011;10963;50.934;4.668;2023-05-21T09:12:08;11.23;;;8.50;;
21601;SDS011;10963;50.934;4.668;2023-05-21T09:14:34;15.23;;;9.57;;
21601;SDS011;10963;50.934;4.668;2023-05-21T09:17:04;13.20;;;8.73;;
21601;SDS011;10963;50.934;4.668;2023-05-21T09:19:30;14.77;;;9.03;;
21601;SDS011;10963;50.934;4.668;2023-05-21T09:22:02;12.57;;;9.57;;
21601;SDS011;10963;50.934;4.668;2023-05-21T09:24:32;11.90;;;9.13;;
21601;SDS011;10963;50.934;4.668;2023-05-21T09:26:58;14.17;;;10.20;;
21601;SDS011;10963;50.934;4.668;2023-05-21T09:29:26;11.17;;;8.87;;
21601;SDS011;10963;50.934;4.668;2023-05-21T09:31:51;16.43;;;9.23;;
21601;SDS011;10963;50.934;4.668;2023-05-21T09:34:21;13.00;;;9.10;;
21601;SDS011;10963;50.934;4.668;2023-05-21T09:36:49;14.40;;;9.38;;
21601;SDS011;10963;50.934;4.668;2023-05-21T09:39:27;14.75;;;9.35;;
21601;SDS011;10963;50.934;4.668;2023-05-21T09:41:56;13.53;;;9.90;;
21601;SDS011;10963;50.934;4.668;2023-05-21T09:44:22;13.25;;;10.05;;
21601;SDS011;10963;50.934;4.668;2023-05-21T09:46:48;13.87;;;9.53;;
21601;SDS011;10963;50.934;4.668;2023-05-21T09:49:23;15.43;;;10.23;;
21601;SDS011;10963;50.934;4.668;2023-05-21T09:51:55;13.07;;;9.43;;
21601;SDS011;10963;50.934;4.668;2023-05-21T09:54:24;12.40;;;9.30;;
21601;SDS011;10963;50.934;4.668;2023-05-21T09:56:54;13.93;;;9.40;;
21601;SDS011;10963;50.934;4.668;2023-05-21T09:59:23;13.33;;;10.73;;
21601;SDS011;10963;50.934;4.668;2023-05-21T10:02:03;15.00;;;10.10;;
21601;SDS011;10963;50.934;4.668;2023-05-21T10:04:44;12.37;;;9.90;;
21601;SDS011;10963;50.934;4.668;2023-05-21T10:07:19;13.10;;;9.73;;
21601;SDS011;10963;50.934;4.668;2023-05-21T10:09:52;12.57;;;10.07;;
21601;SDS011;10963;50.934;4.668;2023-05-21T10:12:22;14.77;;;10.80;;
21601;SDS011;10963;50.934;4.668;2023-05-21T10:14:56;15.03;;;9.73;;
21601;SDS011;10963;50.934;4.668;2023-05-21T10:17:28;12.77;;;10.70;;
21601;SDS011;10963;50.934;4.668;2023-05-21T10:19:57;15.03;;;10.73;;
21601;SDS011;10963;50.934;4.668;2023-05-21T10:22:25;14.60;;;11.17;;
21601;SDS011;10963;50.934;4.668;2023-05-21T10:24:52;13.27;;;10.60;;
21601;SDS011;10963;50.934;4.668;2023-05-21T10:27:20;16.63;;;11.17;;
21601;SDS011;10963;50.934;4.668;2023-05-21T10:29:50;17.47;;;11.37;;
21601;SDS011;10963;50.934;4.668;2023-05-21T10:32:21;13.80;;;11.23;;
21601;SDS011;10963;50.934;4.668;2023-05-21T10:34:50;14.57;;;11.27;;
21601;SDS011;10963;50.934;4.668;2023-05-21T10:37:26;15.57;;;10.93;;
21601;SDS011;10963;50.934;4.668;2023-05-21T10:39:52;17.10;;;11.50;;
21601;SDS011;10963;50.934;4.668;2023-05-21T10:48:04;15.00;;;11.60;;
21601;SDS011;10963;50.934;4.668;2023-05-21T10:53:20;17.10;;;11.53;;
21601;SDS011;10963;50.934;4.668;2023-05-21T10:58:26;20.93;;;12.60;;
21601;SDS011;10963;50.934;4.668;2023-05-21T11:01:00;16.03;;;11.73;;
21601;SDS011;10963;50.934;4.668;2023-05-21T11:03:29;20.20;;;12.80;;
21601;SDS011;10963;50.934;4.668;2023-05-21T11:05:57;17.50;;;12.17;;
21601;SDS011;10963;50.934;4.668;2023-05-21T11:08:27;19.97;;;13.07;;
21601;SDS011;10963;50.934;4.668;2023-05-21T11:11:03;15.53;;;12.53;;
21601;SDS011;10963;50.934;4.668;2023-05-21T11:13:44;16.07;;;12.60;;
21601;SDS011;10963;50.934;4.668;2023-05-21T11:16:14;17.43;;;11.90;;
21601;SDS011;10963;50.934;4.668;2023-05-21T11:26:15;16.70;;;11.40;;
21601;SDS011;10963;50.934;4.668;2023-05-21T11:29:29;16.50;;;12.83;;
21601;SDS011;10963;50.934;4.668;2023-05-21T11:31:57;18.93;;;12.37;;
21601;SDS011;10963;50.934;4.668;2023-05-21T11:34:34;19.73;;;13.77;;
21601;SDS011;10963;50.934;4.668;2023-05-21T11:39:43;17.73;;;12.70;;
21601;SDS011;10963;50.934;4.668;2023-05-21T11:42:09;17.90;;;13.67;;
21601;SDS011;10963;50.934;4.668;2023-05-21T11:44:38;18.33;;;12.77;;
21601;SDS011;10963;50.934;4.668;2023-05-21T11:47:05;19.23;;;13.00;;
21601;SDS011;10963;50.934;4.668;2023-05-21T11:49:35;18.57;;;12.90;;
21601;SDS011;10963;50.934;4.668;2023-05-21T11:52:02;20.07;;;13.07;;
21601;SDS011;10963;50.934;4.668;2023-05-21T11:54:38;16.37;;;12.87;;
21601;SDS011;10963;50.934;4.668;2023-05-21T11:57:08;17.33;;;12.10;;
21601;SDS011;10963;50.934;4.668;2023-05-21T11:59:34;16.67;;;12.60;;
21601;SDS011;10963;50.934;4.668;2023-05-21T12:02:02;16.10;;;12.50;;
21601;SDS011;10963;50.934;4.668;2023-05-21T12:07:03;20.45;;;12.82;;
21601;SDS011;10963;50.934;4.668;2023-05-21T12:12:11;16.13;;;11.60;;
21601;SDS011;10963;50.934;4.668;2023-05-21T12:14:42;16.40;;;12.23;;
21601;SDS011;10963;50.934;4.668;2023-05-21T12:17:09;15.65;;;12.77;;
21601;SDS011;10963;50.934;4.668;2023-05-21T12:19:39;18.02;;;13.25;;
21601;SDS011;10963;50.934;4.668;2023-05-21T12:22:06;17.35;;;12.73;;
21601;SDS011;10963;50.934;4.668;2023-05-21T12:24:32;15.55;;;11.93;;
21601;SDS011;10963;50.934;4.668;2023-05-21T12:26:59;21.42;;;13.02;;
21601;SDS011;10963;50.934;4.668;2023-05-21T12:29:33;21.35;;;12.35;;
21601;SDS011;10963;50.934;4.668;2023-05-21T12:32:06;20.10;;;12.68;;
21601;SDS011;10963;50.934;4.668;2023-05-21T12:34:43;20.08;;;13.18;;
21601;SDS011;10963;50.934;4.668;2023-05-21T12:39:52;18.67;;;13.45;;
21601;SDS011;10963;50.934;4.668;2023-05-21T12:42:25;19.27;;;13.03;;
21601;SDS011;10963;50.934;4.668;2023-05-21T12:44:54;19.70;;;13.27;;
21601;SDS011;10963;50.934;4.668;2023-05-21T12:47:26;16.37;;;11.87;;
21601;SDS011;10963;50.934;4.668;2023-05-21T12:50:00;17.85;;;12.30;;
21601;SDS011;10963;50.934;4.668;2023-05-21T12:52:38;18.02;;;13.23;;
21601;SDS011;10963;50.934;4.668;2023-05-21T12:55:07;25.02;;;14.18;;
21601;SDS011;10963;50.934;4.668;2023-05-21T12:57:36;17.65;;;12.65;;
21601;SDS011;10963;50.934;4.668;2023-05-21T13:00:08;18.50;;;13.20;;
21601;SDS011;10963;50.934;4.668;2023-05-21T13:02:38;16.75;;;13.20;;
21601;SDS011;10963;50.934;4.668;2023-05-21T13:05:08;18.23;;;13.40;;
21601;SDS011;10963;50.934;4.668;2023-05-21T13:07:38;19.98;;;13.23;;
21601;SDS011;10963;50.934;4.668;2023-05-21T13:10:06;18.63;;;13.30;;
21601;SDS011;10963;50.934;4.668;2023-05-21T13:12:37;16.93;;;12.33;;
21601;SDS011;10963;50.934;4.668;2023-05-21T13:15:03;18.33;;;13.40;;
21601;SDS011;10963;50.934;4.668;2023-05-21T13:17:32;55.15;;;15.05;;
21601;SDS011;10963;50.934;4.668;2023-05-21T13:22:35;54.13;;;14.27;;
21601;SDS011;10963;50.934;4.668;2023-05-21T13:25:11;20.00;;;13.67;;
21601;SDS011;10963;50.934;4.668;2023-05-21T13:27:45;17.97;;;13.33;;
21601;SDS011;10963;50.934;4.668;2023-05-21T13:30:11;16.83;;;12.17;;
21601;SDS011;10963;50.934;4.668;2023-05-21T13:32:42;19.53;;;13.00;;
21601;SDS011;10963;50.934;4.668;2023-05-21T13:35:10;18.30;;;12.87;;
21601;SDS011;10963;50.934;4.668;2023-05-21T13:37:37;17.63;;;13.30;;
21601;SDS011;10963;50.934;4.668;2023-05-21T13:40:07;18.60;;;13.87;;
21601;SDS011;10963;50.934;4.668;2023-05-21T13:42:42;17.33;;;12.57;;
21601;SDS011;10963;50.934;4.668;2023-05-21T13:45:10;21.13;;;12.67;;
21601;SDS011;10963;50.934;4.668;2023-05-21T13:47:42;19.23;;;13.00;;
21601;SDS011;10963;50.934;4.668;2023-05-21T13:50:09;15.83;;;12.40;;
21601;SDS011;10963;50.934;4.668;2023-05-21T13:52:35;20.07;;;13.70;;
21601;SDS011;10963;50.934;4.668;2023-05-21T13:55:04;19.57;;;13.77;;
21601;SDS011;10963;50.934;4.668;2023-05-21T13:57:32;18.60;;;12.90;;
21601;SDS011;10963;50.934;4.668;2023-05-21T13:59:58;18.30;;;13.67;;
21601;SDS011;10963;50.934;4.668;2023-05-21T14:02:27;17.87;;;12.70;;
21601;SDS011;10963;50.934;4.668;2023-05-21T14:04:54;17.53;;;12.53;;
21601;SDS011;10963;50.934;4.668;2023-05-21T14:07:23;19.47;;;13.13;;
21601;SDS011;10963;50.934;4.668;2023-05-21T14:09:48;17.60;;;13.03;;
21601;SDS011;10963;50.934;4.668;2023-05-21T14:12:14;18.53;;;13.40;;
21601;SDS011;10963;50.934;4.668;2023-05-21T14:14:40;18.87;;;13.63;;
21601;SDS011;10963;50.934;4.668;2023-05-21T14:17:08;15.67;;;11.90;;
21601;SDS011;10963;50.934;4.668;2023-05-21T14:19:36;18.42;;;12.63;;
21601;SDS011;10963;50.934;4.668;2023-05-21T14:22:02;17.27;;;12.00;;
21601;SDS011;10963;50.934;4.668;2023-05-21T14:24:28;15.07;;;11.57;;
21601;SDS011;10963;50.934;4.668;2023-05-21T14:26:58;14.65;;;12.05;;
21601;SDS011;10963;50.934;4.668;2023-05-21T14:29:29;17.67;;;12.93;;
21601;SDS011;10963;50.934;4.668;2023-05-21T14:31:57;23.00;;;13.20;;
21601;SDS011;10963;50.934;4.668;2023-05-21T14:34:28;18.13;;;13.27;;
21601;SDS011;10963;50.934;4.668;2023-05-21T14:36:53;22.33;;;12.93;;
21601;SDS011;10963;50.934;4.668;2023-05-21T14:39:19;16.87;;;12.90;;
21601;SDS011;10963;50.934;4.668;2023-05-21T14:41:45;16.13;;;11.75;;
21601;SDS011;10963;50.934;4.668;2023-05-21T14:44:12;16.80;;;12.43;;
21601;SDS011;10963;50.934;4.668;2023-05-21T14:46:41;18.70;;;12.33;;
21601;SDS011;10963;50.934;4.668;2023-05-21T14:49:06;18.10;;;13.35;;
21601;SDS011;10963;50.934;4.668;2023-05-21T14:51:32;20.60;;;11.93;;
21601;SDS011;10963;50.934;4.668;2023-05-21T14:54:00;19.67;;;12.30;;
21601;SDS011;10963;50.934;4.668;2023-05-21T14:56:28;18.47;;;12.40;;
21601;SDS011;10963;50.934;4.668;2023-05-21T14:58:54;15.37;;;12.20;;
21601;SDS011;10963;50.934;4.668;2023-05-21T15:01:23;17.90;;;12.77;;
21601;SDS011;10963;50.934;4.668;2023-05-21T15:03:48;17.03;;;12.23;;
21601;SDS011;10963;50.934;4.668;2023-05-21T15:06:14;16.67;;;12.13;;
21601;SDS011;10963;50.934;4.668;2023-05-21T15:08:42;20.30;;;11.90;;
21601;SDS011;10963;50.934;4.668;2023-05-21T15:11:13;17.08;;;11.70;;
21601;SDS011;10963;50.934;4.668;2023-05-21T15:13:38;18.40;;;11.15;;
21601;SDS011;10963;50.934;4.668;2023-05-21T15:16:04;16.27;;;11.82;;
21601;SDS011;10963;50.934;4.668;2023-05-21T15:18:32;16.20;;;12.10;;
21601;SDS011;10963;50.934;4.668;2023-05-21T15:21:03;15.63;;;12.32;;